createdAt,value
2019-02-07T00:00:53.970Z,66.99
2019-02-07T00:01:58.548Z,67.51
2019-02-07T00:03:02.872Z,70.10
2019-02-07T00:04:07.398Z,68.26
2019-02-07T00:05:11.719Z,68.18
2019-02-07T00:06:16.639Z,69.60
2019-02-07T00:07:20.936Z,72.89
2019-02-07T00:08:25.234Z,71.29
2019-02-07T00:09:30.093Z,69.27
2019-02-07T00:10:36.851Z,67.92
2019-02-07T00:11:40.903Z,68.11
2019-02-07T00:12:45.467Z,67.45
2019-02-07T00:13:50.135Z,68.75
2019-02-07T00:14:54.838Z,68.05
2019-02-07T00:15:59.470Z,67.96
2019-02-07T00:17:03.794Z,66.95
2019-02-07T00:18:08.349Z,67.36
2019-02-07T00:19:12.913Z,66.69
2019-02-07T00:20:17.500Z,66.82
2019-02-07T00:21:22.345Z,65.97
2019-02-07T00:22:26.946Z,67.64
2019-02-07T00:23:31.240Z,67.38
2019-02-07T00:24:42.811Z,66.10
2019-02-07T00:25:42.657Z,66.61
2019-02-07T00:26:47.342Z,66.15
2019-02-07T00:27:51.953Z,66.17
2019-02-07T00:28:56.537Z,67.22
2019-02-07T00:30:01.124Z,66.02
2019-02-07T00:31:05.831Z,67.36
2019-02-07T00:32:10.850Z,69.97
2019-02-07T00:33:14.916Z,66.70
2019-02-07T00:34:19.500Z,66.35
2019-02-07T00:35:24.321Z,66.64
2019-02-07T00:36:28.636Z,69.96
2019-02-07T00:37:33.298Z,70.38
2019-02-07T00:38:38.425Z,70.14
2019-02-07T00:39:43.035Z,70.35
2019-02-07T00:40:47.900Z,72.91
2019-02-07T00:41:51.954Z,69.24
2019-02-07T00:42:56.055Z,71.62
2019-02-07T00:44:00.652Z,67.56
2019-02-07T00:45:05.527Z,69.02
2019-02-07T00:46:09.822Z,68.30
2019-02-07T00:47:14.637Z,100.00
2019-02-07T00:48:19.454Z,100.00
2019-02-07T00:52:01.846Z,100.00
2019-02-07T00:53:07.860Z,100.00
2019-02-07T00:54:13.090Z,100.00
2019-02-07T01:13:41.847Z,100.00
2019-02-07T01:45:12.840Z,100.00
2019-02-07T01:46:12.565Z,69.37
2019-02-07T01:47:17.248Z,78.53
2019-02-07T01:48:21.802Z,79.84
2019-02-07T01:49:26.391Z,78.36
2019-02-07T01:50:30.948Z,78.36
2019-02-07T01:51:36.137Z,79.53
2019-02-07T01:52:40.196Z,78.84
2019-02-07T01:53:44.880Z,78.64
2019-02-07T01:54:49.564Z,78.80
2019-02-07T01:55:53.839Z,78.97
2019-02-07T01:56:58.704Z,80.15
2019-02-07T01:58:03.286Z,78.98
2019-02-07T01:59:07.849Z,76.96
2019-02-07T02:00:14.197Z,78.63
2019-02-07T02:01:18.504Z,76.94
2019-02-07T02:02:23.078Z,79.62
2019-02-07T02:03:27.649Z,80.08
2019-02-07T02:04:34.541Z,83.76
2019-02-07T02:05:39.171Z,82.00
2019-02-07T02:06:43.727Z,81.35
2019-02-07T02:07:48.291Z,82.24
2019-02-07T02:08:53.107Z,77.16
2019-02-07T02:09:57.687Z,78.43
2019-02-07T02:11:02.058Z,81.15
2019-02-07T02:12:06.426Z,79.18
2019-02-07T02:13:10.768Z,79.26
2019-02-07T02:14:15.092Z,77.49
2019-02-07T02:15:24.645Z,78.04
2019-02-07T02:16:27.616Z,80.03
2019-02-07T02:17:31.922Z,78.82
2019-02-07T02:18:36.395Z,77.63
2019-02-07T02:19:40.977Z,77.60
2019-02-07T02:20:45.572Z,77.35
2019-02-07T02:21:50.195Z,79.34
2019-02-07T02:22:55.098Z,79.24
2019-02-07T02:23:59.642Z,78.00
2019-02-07T02:25:04.830Z,78.48
2019-02-07T02:26:09.402Z,78.59
2019-02-07T02:27:13.986Z,77.56
2019-02-07T02:28:18.836Z,79.55
2019-02-07T02:29:23.631Z,77.08
2019-02-07T02:30:31.005Z,76.95
2019-02-07T02:31:36.047Z,77.03
2019-02-07T02:32:40.344Z,80.07
2019-02-07T02:33:44.924Z,77.92
2019-02-07T02:34:49.544Z,77.96
2019-02-07T02:35:54.115Z,77.69
2019-02-07T02:36:58.411Z,77.96
2019-02-07T02:38:02.732Z,78.09
2019-02-07T02:39:09.196Z,79.44
2019-02-07T02:40:13.528Z,79.49
2019-02-07T02:41:18.106Z,79.36
2019-02-07T02:42:22.498Z,82.49
2019-02-07T02:43:27.417Z,81.45
2019-02-07T02:44:31.705Z,81.78
2019-02-07T02:45:37.843Z,81.27
2019-02-07T02:46:42.278Z,80.25
2019-02-07T02:47:47.036Z,80.90
2019-02-07T02:48:52.109Z,80.09
2019-02-07T02:49:56.784Z,79.74
2019-02-07T02:51:01.109Z,80.58
2019-02-07T02:52:05.666Z,79.32
2019-02-07T02:53:09.972Z,80.71
2019-02-07T02:54:51.682Z,80.73
2019-02-07T02:55:58.638Z,79.09
2019-02-07T02:57:03.012Z,78.94
2019-02-07T02:58:07.308Z,78.48
2019-02-07T02:59:11.954Z,78.19
2019-02-07T03:00:19.074Z,77.64
2019-02-07T03:01:42.446Z,76.76
2019-02-07T03:03:04.070Z,77.07
2019-02-07T03:04:39.135Z,77.06
2019-02-07T03:05:54.671Z,79.30
2019-02-07T03:07:23.751Z,77.39
2019-02-07T03:08:41.477Z,79.60
2019-02-07T03:10:03.805Z,76.16
2019-02-07T03:11:41.593Z,77.09
2019-02-07T03:13:03.344Z,75.61
2019-02-07T03:14:14.639Z,76.92
2019-02-07T03:15:49.330Z,76.14
2019-02-07T03:16:58.510Z,75.12
2019-02-07T03:18:33.768Z,76.97
2019-02-07T03:19:56.557Z,74.00
2019-02-07T03:21:21.809Z,74.74
2019-02-07T03:22:35.035Z,74.14
2019-02-07T03:23:57.438Z,73.06
2019-02-07T03:25:18.852Z,74.23
2019-02-07T03:26:34.427Z,73.95
2019-02-07T03:27:56.545Z,73.07
2019-02-07T03:29:19.106Z,73.26
2019-02-07T03:30:42.282Z,72.62
2019-02-07T03:32:02.379Z,72.39
2019-02-07T03:33:16.242Z,71.88
2019-02-07T03:34:52.010Z,72.52
2019-02-07T03:36:16.192Z,72.10
2019-02-07T03:37:48.424Z,72.80
2019-02-07T03:39:01.949Z,71.67
2019-02-07T03:40:27.214Z,71.16
2019-02-07T03:41:48.886Z,71.80
2019-02-07T03:43:15.351Z,71.46
2019-02-07T03:44:41.626Z,71.92
2019-02-07T03:46:03.557Z,71.38
2019-02-07T03:47:14.601Z,70.96
2019-02-07T03:48:41.286Z,70.62
2019-02-07T03:49:58.865Z,71.04
2019-02-07T03:51:31.009Z,70.68
2019-02-07T03:52:46.999Z,70.54
2019-02-07T03:54:09.921Z,70.30
2019-02-07T03:55:38.975Z,70.39
2019-02-07T03:57:00.561Z,70.13
2019-02-07T03:58:20.646Z,69.80
2019-02-07T03:59:39.496Z,69.00
2019-02-07T04:01:02.514Z,70.89
2019-02-07T04:02:24.554Z,69.23
2019-02-07T04:03:45.697Z,69.85
2019-02-07T04:05:09.397Z,68.94
2019-02-07T04:06:21.082Z,68.20
2019-02-07T04:07:47.356Z,69.54
2019-02-07T04:09:19.729Z,69.24
2019-02-07T04:10:34.723Z,68.66
2019-02-07T04:11:54.796Z,68.09
2019-02-07T04:13:17.179Z,68.43
2019-02-07T04:14:49.308Z,68.62
2019-02-07T04:16:17.879Z,68.24
2019-02-07T04:17:46.915Z,68.49
2019-02-07T04:19:03.978Z,68.03
2019-02-07T04:20:27.229Z,67.71
2019-02-07T04:21:53.756Z,67.54
2019-02-07T04:23:16.370Z,68.34
2019-02-07T04:24:49.227Z,68.29
2019-02-07T04:26:11.108Z,67.66
2019-02-07T04:27:43.100Z,67.37
2019-02-07T04:29:12.962Z,67.77
2019-02-07T04:30:41.976Z,68.22
2019-02-07T04:32:15.322Z,67.14
2019-02-07T04:33:38.001Z,67.44
2019-02-07T04:35:16.902Z,67.00
2019-02-07T04:36:45.951Z,66.78
2019-02-07T04:38:05.861Z,67.17
2019-02-07T04:39:47.462Z,67.66
2019-02-07T04:41:22.583Z,67.44
2019-02-07T04:42:52.372Z,67.06
2019-02-07T04:44:18.880Z,67.44
2019-02-07T04:45:41.542Z,66.80
2019-02-07T04:46:58.887Z,67.21
2019-02-07T04:48:40.607Z,67.01
2019-02-07T04:50:10.670Z,67.10
2019-02-07T04:51:29.371Z,67.33
2019-02-07T04:53:01.947Z,67.28
2019-02-07T04:54:25.348Z,66.72
2019-02-07T04:55:47.415Z,67.75
2019-02-07T04:57:12.545Z,66.99
2019-02-07T04:58:41.850Z,67.03
2019-02-07T04:59:58.008Z,67.14
2019-02-07T05:01:33.174Z,67.46
2019-02-07T05:03:04.880Z,66.66
2019-02-07T05:04:19.948Z,66.80
2019-02-07T05:05:47.690Z,67.47
2019-02-07T05:07:13.945Z,67.32
2019-02-07T05:08:30.894Z,66.91
2019-02-07T05:10:12.524Z,66.50
2019-02-07T05:11:45.606Z,67.06
2019-02-07T05:13:08.920Z,67.59
2019-02-07T05:14:41.691Z,66.35
2019-02-07T05:16:20.285Z,66.52
2019-02-07T05:17:49.956Z,66.31
2019-02-07T05:19:14.113Z,66.77
2019-02-07T05:20:36.284Z,66.38
2019-02-07T05:21:58.978Z,66.99
2019-02-07T05:23:25.822Z,66.74
2019-02-07T05:24:48.582Z,66.86
2019-02-07T05:26:17.452Z,66.44
2019-02-07T05:27:48.066Z,66.20
2019-02-07T05:29:11.517Z,66.66
2019-02-07T05:30:33.181Z,66.37
2019-02-07T05:31:59.489Z,66.56
2019-02-07T05:33:17.398Z,66.15
2019-02-07T05:34:32.616Z,66.25
2019-02-07T05:35:56.160Z,66.49
2019-02-07T05:37:15.973Z,66.35
2019-02-07T05:38:33.184Z,66.19
2019-02-07T05:39:58.377Z,66.40
2019-02-07T05:41:24.735Z,66.66
2019-02-07T05:42:46.580Z,66.02
2019-02-07T05:44:09.010Z,66.43
2019-02-07T05:45:28.630Z,66.19
2019-02-07T05:46:51.349Z,66.50
2019-02-07T05:48:20.196Z,66.39
2019-02-07T05:49:46.875Z,66.36
2019-02-07T05:51:02.247Z,67.01
2019-02-07T05:52:15.026Z,66.78
2019-02-07T05:53:41.548Z,67.04
2019-02-07T05:55:03.875Z,67.26
2019-02-07T05:56:39.217Z,67.15
2019-02-07T05:58:01.249Z,66.57
2019-02-07T05:59:23.331Z,66.78
2019-02-07T06:00:47.267Z,67.42
2019-02-07T06:02:13.777Z,67.43
2019-02-07T06:03:37.023Z,67.42
2019-02-07T06:04:55.600Z,67.89
2019-02-07T06:06:27.864Z,67.86
2019-02-07T06:07:50.353Z,67.46
2019-02-07T06:09:12.453Z,67.45
2019-02-07T06:10:35.904Z,67.27
2019-02-07T06:12:02.137Z,67.52
2019-02-07T06:13:28.309Z,68.55
2019-02-07T06:14:54.104Z,68.35
2019-02-07T06:16:09.693Z,67.77
2019-02-07T06:17:31.889Z,68.14
2019-02-07T06:19:03.319Z,68.28
2019-02-07T06:20:25.458Z,67.81
2019-02-07T06:21:43.010Z,67.95
2019-02-07T06:23:05.946Z,67.96
2019-02-07T06:24:37.912Z,68.13
2019-02-07T06:26:01.239Z,68.50
2019-02-07T06:27:37.317Z,68.29
2019-02-07T06:28:59.338Z,68.19
2019-02-07T06:30:21.097Z,68.50
2019-02-07T06:31:53.390Z,68.62
2019-02-07T06:33:14.837Z,68.71
2019-02-07T06:34:43.823Z,70.16
2019-02-07T06:35:57.748Z,70.81
2019-02-07T06:37:12.575Z,71.25
2019-02-07T06:38:35.533Z,69.66
2019-02-07T06:40:18.124Z,69.32
2019-02-07T06:41:47.664Z,70.21
2019-02-07T06:43:00.062Z,69.18
2019-02-07T06:44:22.062Z,69.35
2019-02-07T06:45:46.026Z,69.27
2019-02-07T06:47:13.238Z,69.68
2019-02-07T06:48:31.136Z,69.69
2019-02-07T06:49:59.744Z,70.11
2019-02-07T06:51:12.191Z,71.80
2019-02-07T06:52:27.141Z,71.37
2019-02-07T06:53:41.172Z,71.10
2019-02-07T06:55:03.782Z,70.84
2019-02-07T06:56:32.797Z,71.05
2019-02-07T06:57:58.926Z,71.07
2019-02-07T06:59:19.627Z,71.46
2019-02-07T07:00:38.354Z,71.41
2019-02-07T07:01:55.169Z,71.27
2019-02-07T07:03:23.499Z,71.12
2019-02-07T07:04:58.458Z,71.28
2019-02-07T07:06:11.568Z,71.54
2019-02-07T07:07:47.016Z,71.86
2019-02-07T07:09:19.448Z,73.38
2019-02-07T07:10:41.924Z,73.06
2019-02-07T07:12:14.592Z,74.05
2019-02-07T07:13:31.151Z,74.26
2019-02-07T07:14:56.049Z,74.09
2019-02-07T07:16:19.271Z,74.56
2019-02-07T07:17:51.967Z,74.92
2019-02-07T07:19:18.058Z,74.57
2019-02-07T07:20:39.038Z,74.29
2019-02-07T07:22:00.951Z,74.42
2019-02-07T07:23:29.625Z,74.66
2019-02-07T07:24:51.691Z,75.10
2019-02-07T07:26:26.775Z,75.33
2019-02-07T07:27:48.954Z,75.54
2019-02-07T07:29:13.889Z,75.64
2019-02-07T07:30:46.499Z,75.54
2019-02-07T07:32:28.239Z,75.79
2019-02-07T07:33:43.113Z,75.71
2019-02-07T07:35:18.638Z,75.92
2019-02-07T07:36:56.973Z,76.33
2019-02-07T07:38:29.889Z,76.56
2019-02-07T07:39:51.952Z,76.92
2019-02-07T07:41:21.041Z,77.26
2019-02-07T07:42:37.526Z,77.42
2019-02-07T07:43:59.545Z,77.48
2019-02-07T07:45:16.646Z,77.53
2019-02-07T07:46:48.795Z,77.52
2019-02-07T07:48:12.055Z,77.69
2019-02-07T07:49:34.191Z,77.48
2019-02-07T07:50:54.783Z,77.14
2019-02-07T07:52:15.159Z,77.20
2019-02-07T07:53:47.029Z,77.49
2019-02-07T07:54:56.896Z,77.19
2019-02-07T07:56:26.212Z,77.47
2019-02-07T07:57:42.287Z,77.44
2019-02-07T07:59:05.306Z,77.58
2019-02-07T08:00:28.086Z,77.46
2019-02-07T08:01:49.316Z,77.28
2019-02-07T08:03:04.183Z,77.33
2019-02-07T08:04:30.198Z,77.85
2019-02-07T08:05:45.482Z,77.75
2019-02-07T08:07:21.250Z,77.42
2019-02-07T08:08:42.922Z,77.37
2019-02-07T08:10:05.272Z,77.28
2019-02-07T08:11:21.432Z,77.34
2019-02-07T08:12:42.457Z,77.46
2019-02-07T08:14:12.066Z,77.25
2019-02-07T08:15:25.646Z,77.36
2019-02-07T08:16:47.765Z,77.00
2019-02-07T08:18:29.561Z,77.07
2019-02-07T08:20:08.245Z,76.86
2019-02-07T08:21:35.648Z,76.81
2019-02-07T08:22:57.879Z,76.84
2019-02-07T08:24:21.259Z,76.65
2019-02-07T08:25:56.826Z,76.79
2019-02-07T08:27:23.039Z,76.88
2019-02-07T08:28:35.686Z,76.77
2019-02-07T08:29:58.596Z,76.78
2019-02-07T08:31:25.234Z,76.74
2019-02-07T08:32:51.225Z,76.51
2019-02-07T08:34:23.743Z,77.16
2019-02-07T08:35:56.730Z,76.70
2019-02-07T08:37:17.843Z,76.93
2019-02-07T08:38:43.561Z,76.56
2019-02-07T08:40:15.881Z,76.67
2019-02-07T08:41:32.118Z,76.80
2019-02-07T08:42:47.454Z,76.60
2019-02-07T08:44:13.836Z,76.63
2019-02-07T08:45:25.871Z,76.85
2019-02-07T08:46:48.228Z,76.79
2019-02-07T08:48:23.352Z,77.21
2019-02-07T08:49:52.915Z,77.30
2019-02-07T08:51:04.313Z,77.10
2019-02-07T08:52:26.267Z,76.69
2019-02-07T08:53:58.635Z,77.05
2019-02-07T08:55:26.041Z,76.69
2019-02-07T08:57:07.672Z,77.10
2019-02-07T08:58:33.587Z,76.72
2019-02-07T08:59:59.318Z,77.04
2019-02-07T09:01:31.617Z,76.92
2019-02-07T09:03:04.580Z,77.14
2019-02-07T09:04:33.759Z,76.03
2019-02-07T09:05:57.044Z,76.16
2019-02-07T09:07:23.449Z,75.57
2019-02-07T09:08:35.965Z,75.58
2019-02-07T09:10:11.120Z,75.67
2019-02-07T09:11:40.514Z,75.63
2019-02-07T09:13:04.034Z,76.01
2019-02-07T09:14:25.932Z,75.73
2019-02-07T09:15:45.713Z,75.48
2019-02-07T09:17:14.442Z,75.55
2019-02-07T09:18:52.396Z,75.61
2019-02-07T09:20:07.695Z,75.45
2019-02-07T09:21:23.928Z,75.03
2019-02-07T09:22:56.597Z,74.99
2019-02-07T09:24:33.199Z,75.32
2019-02-07T09:25:59.466Z,74.57
2019-02-07T09:27:29.092Z,73.91
2019-02-07T09:28:45.326Z,73.85
2019-02-07T09:30:11.079Z,73.11
2019-02-07T09:31:33.196Z,72.02
2019-02-07T09:32:54.785Z,71.11
2019-02-07T09:34:17.112Z,71.10
2019-02-07T09:35:40.311Z,70.41
2019-02-07T09:37:15.967Z,70.36
2019-02-07T09:38:46.413Z,70.24
2019-02-07T09:39:57.793Z,69.79
2019-02-07T09:41:20.970Z,68.98
2019-02-07T09:42:46.194Z,68.97
2019-02-07T09:44:12.451Z,68.61
2019-02-07T09:45:47.902Z,67.67
2019-02-07T09:47:14.318Z,68.34
2019-02-07T09:48:38.601Z,67.96
2019-02-07T09:50:00.941Z,67.66
2019-02-07T09:51:15.064Z,68.18
2019-02-07T09:52:47.892Z,67.37
2019-02-07T09:54:17.095Z,67.59
2019-02-07T09:55:44.581Z,66.35
2019-02-07T09:57:07.768Z,66.56
2019-02-07T09:58:34.255Z,65.44
2019-02-07T10:00:03.956Z,64.79
2019-02-07T10:01:33.549Z,63.03
2019-02-07T10:03:00.078Z,62.10
2019-02-07T10:04:29.957Z,61.70
2019-02-07T10:05:59.131Z,62.10
2019-02-07T10:07:17.012Z,61.92
2019-02-07T10:08:39.378Z,62.43
2019-02-07T10:10:01.244Z,62.12
2019-02-07T10:11:30.744Z,61.22
2019-02-07T10:12:52.625Z,60.41
2019-02-07T10:14:14.089Z,59.68
2019-02-07T10:15:37.629Z,60.00
2019-02-07T10:17:00.121Z,60.11
2019-02-07T10:18:35.421Z,59.79
2019-02-07T10:19:53.316Z,58.62
2019-02-07T10:21:05.752Z,58.24
2019-02-07T10:22:27.556Z,58.57
2019-02-07T10:23:57.302Z,59.01
2019-02-07T10:25:23.867Z,59.03
2019-02-07T10:27:05.968Z,59.60
2019-02-07T10:28:24.336Z,59.46
2019-02-07T10:29:56.396Z,58.72
2019-02-07T10:31:19.214Z,58.85
2019-02-07T10:32:32.158Z,59.29
2019-02-07T10:34:13.470Z,59.21
2019-02-07T10:35:46.035Z,59.29
2019-02-07T10:37:27.368Z,58.73
2019-02-07T10:38:56.456Z,56.88
2019-02-07T10:40:28.769Z,56.86
2019-02-07T10:41:51.989Z,57.73
2019-02-07T10:43:18.118Z,56.21
2019-02-07T10:44:47.878Z,55.45
2019-02-07T10:46:11.470Z,55.05
2019-02-07T10:47:52.698Z,55.36
2019-02-07T10:49:22.513Z,55.76
2019-02-07T10:50:45.118Z,55.98
2019-02-07T10:51:57.759Z,55.53
2019-02-07T10:53:22.778Z,55.95
2019-02-07T10:54:40.725Z,55.88
2019-02-07T10:56:02.819Z,56.09
2019-02-07T10:57:28.103Z,55.97
2019-02-07T10:58:50.278Z,55.89
2019-02-07T11:00:16.047Z,55.63
2019-02-07T11:01:38.264Z,54.97
2019-02-07T11:02:54.874Z,54.74
2019-02-07T11:04:19.501Z,54.68
2019-02-07T11:05:41.856Z,54.46
2019-02-07T11:07:06.709Z,54.49
2019-02-07T11:08:32.723Z,54.79
2019-02-07T11:10:08.279Z,53.79
2019-02-07T11:11:41.098Z,54.58
2019-02-07T11:13:10.328Z,54.80
2019-02-07T11:14:51.991Z,54.91
2019-02-07T11:16:14.938Z,54.84
2019-02-07T11:17:37.032Z,55.05
2019-02-07T11:18:56.969Z,54.32
2019-02-07T11:20:20.287Z,54.57
2019-02-07T11:21:47.839Z,54.69
2019-02-07T11:23:14.362Z,55.22
2019-02-07T11:24:52.085Z,54.91
2019-02-07T11:26:14.458Z,55.04
2019-02-07T11:27:46.860Z,53.85
2019-02-07T11:29:13.069Z,54.69
2019-02-07T11:30:31.590Z,54.39
2019-02-07T11:31:44.783Z,53.70
2019-02-07T11:33:00.706Z,53.49
2019-02-07T11:34:23.652Z,53.14
2019-02-07T11:35:45.599Z,52.70
2019-02-07T11:37:11.916Z,52.60
2019-02-07T11:38:35.361Z,51.89
2019-02-07T11:39:46.848Z,52.17
2019-02-07T11:41:10.435Z,52.56
2019-02-07T11:42:46.638Z,52.76
2019-02-07T11:44:09.571Z,52.48
2019-02-07T11:45:30.910Z,52.94
2019-02-07T11:46:44.840Z,52.97
2019-02-07T11:48:06.293Z,54.08
2019-02-07T11:49:18.028Z,54.23
2019-02-07T11:50:50.427Z,53.09
2019-02-07T11:52:07.493Z,52.96
2019-02-07T11:53:46.372Z,53.64
2019-02-07T11:54:59.865Z,53.09
2019-02-07T11:56:28.540Z,53.45
2019-02-07T11:57:50.916Z,53.20
2019-02-07T11:59:13.209Z,53.00
2019-02-07T12:00:29.786Z,53.22
2019-02-07T12:01:47.419Z,53.81
2019-02-07T12:03:19.818Z,53.65
2019-02-07T12:04:35.127Z,54.08
2019-02-07T12:05:57.204Z,53.88
2019-02-07T12:07:18.958Z,54.12
2019-02-07T12:08:41.058Z,53.77
2019-02-07T12:10:02.522Z,53.65
2019-02-07T12:11:29.585Z,53.64
2019-02-07T12:12:49.323Z,53.50
2019-02-07T12:14:16.686Z,53.59
2019-02-07T12:15:42.796Z,53.69
2019-02-07T12:17:01.946Z,53.22
2019-02-07T12:18:19.280Z,53.49
2019-02-07T12:19:45.517Z,53.51
2019-02-07T12:21:14.651Z,53.49
2019-02-07T12:22:29.646Z,53.16
2019-02-07T12:23:52.059Z,52.47
2019-02-07T12:25:27.815Z,51.95
2019-02-07T12:26:54.279Z,51.71
2019-02-07T12:28:12.466Z,51.71
2019-02-07T12:29:32.031Z,51.08
2019-02-07T12:30:58.351Z,51.09
2019-02-07T12:32:19.863Z,51.18
2019-02-07T12:33:41.745Z,51.47
2019-02-07T12:35:14.224Z,51.15
2019-02-07T12:36:35.661Z,50.73
2019-02-07T12:37:58.632Z,51.23
2019-02-07T12:39:31.439Z,51.18
2019-02-07T12:40:56.939Z,50.97
2019-02-07T12:42:27.709Z,50.15
2019-02-07T12:43:50.898Z,50.19
2019-02-07T12:45:13.643Z,50.51
2019-02-07T12:46:46.669Z,50.75
2019-02-07T12:48:09.449Z,50.75
2019-02-07T12:49:29.485Z,50.80
2019-02-07T12:50:56.150Z,51.12
2019-02-07T12:52:10.085Z,50.66
2019-02-07T12:53:39.102Z,49.89
2019-02-07T12:54:57.497Z,50.15
2019-02-07T12:56:18.186Z,50.77
2019-02-07T12:58:00.547Z,50.74
2019-02-07T12:59:32.626Z,50.75
2019-02-07T13:00:56.842Z,50.66
2019-02-07T13:02:18.898Z,50.15
2019-02-07T13:03:43.219Z,49.87
2019-02-07T13:05:05.678Z,49.77
2019-02-07T13:06:28.087Z,49.56
2019-02-07T13:07:53.225Z,49.67
2019-02-07T13:09:17.253Z,49.83
2019-02-07T13:10:46.481Z,49.89
2019-02-07T13:12:03.169Z,49.61
2019-02-07T13:13:17.943Z,49.49
2019-02-07T13:14:53.751Z,49.91
2019-02-07T13:16:12.292Z,50.13
2019-02-07T13:17:37.369Z,50.47
2019-02-07T13:18:55.034Z,50.39
2019-02-07T13:20:18.448Z,50.81
2019-02-07T13:21:41.926Z,51.05
2019-02-07T13:23:05.162Z,50.37
2019-02-07T13:24:27.555Z,50.49
2019-02-07T13:26:05.972Z,50.56
2019-02-07T13:27:28.598Z,49.94
2019-02-07T13:28:47.209Z,49.76
2019-02-07T13:30:08.764Z,49.75
2019-02-07T13:31:37.780Z,49.36
2019-02-07T13:33:10.224Z,49.29
2019-02-07T13:34:32.185Z,49.16
2019-02-07T13:35:54.218Z,49.40
2019-02-07T13:37:17.777Z,49.32
2019-02-07T13:38:39.466Z,49.10
2019-02-07T13:40:01.771Z,48.91
2019-02-07T13:41:22.707Z,49.08
2019-02-07T13:42:46.188Z,49.30
2019-02-07T13:44:13.289Z,49.21
2019-02-07T13:45:28.066Z,49.42
2019-02-07T13:46:51.510Z,49.45
2019-02-07T13:48:20.698Z,49.44
2019-02-07T13:49:51.716Z,49.13
2019-02-07T13:51:23.298Z,48.98
2019-02-07T13:52:55.746Z,49.31
2019-02-07T13:54:11.016Z,49.37
2019-02-07T13:55:52.945Z,49.59
2019-02-07T13:57:15.071Z,49.13
2019-02-07T13:58:34.602Z,49.19
2019-02-07T14:00:13.133Z,49.35
2019-02-07T14:01:35.813Z,48.34
2019-02-07T14:03:05.620Z,48.35
2019-02-07T14:04:37.807Z,48.62
2019-02-07T14:06:04.124Z,48.30
2019-02-07T14:07:30.097Z,48.79
2019-02-07T14:08:52.541Z,49.20
2019-02-07T14:10:18.715Z,49.03
2019-02-07T14:11:40.874Z,49.00
2019-02-07T14:13:07.362Z,49.14
2019-02-07T14:14:18.213Z,48.98
2019-02-07T14:15:44.823Z,49.21
2019-02-07T14:17:14.483Z,49.00
2019-02-07T14:18:56.193Z,49.17
2019-02-07T14:20:19.010Z,48.73
2019-02-07T14:21:41.499Z,49.02
2019-02-07T14:23:10.754Z,48.11
2019-02-07T14:24:24.702Z,48.03
2019-02-07T14:25:40.841Z,48.89
2019-02-07T14:27:04.070Z,48.87
2019-02-07T14:28:14.725Z,48.88
2019-02-07T14:29:47.352Z,48.99
2019-02-07T14:31:09.904Z,48.82
2019-02-07T14:32:36.257Z,48.74
2019-02-07T14:33:58.853Z,49.17
2019-02-07T14:35:15.209Z,49.22
2019-02-07T14:36:45.597Z,48.54
2019-02-07T14:38:10.369Z,48.49
2019-02-07T14:39:32.528Z,47.62
2019-02-07T14:40:51.071Z,47.31
2019-02-07T14:42:23.865Z,47.40
2019-02-07T14:43:38.684Z,47.60
2019-02-07T14:44:54.894Z,48.31
2019-02-07T14:46:14.948Z,48.53
2019-02-07T14:47:19.089Z,48.46
2019-02-07T14:48:27.271Z,48.61
2019-02-07T14:49:32.159Z,48.04
2019-02-07T14:50:36.664Z,47.96
2019-02-07T14:51:41.634Z,47.52
2019-02-07T14:52:46.951Z,47.76
2019-02-07T14:53:51.248Z,48.02
2019-02-07T14:54:57.533Z,47.75
2019-02-07T14:56:02.518Z,47.98
2019-02-07T14:57:07.361Z,48.14
2019-02-07T14:58:11.974Z,48.25
2019-02-07T14:59:16.523Z,48.42
2019-02-07T15:00:23.085Z,48.86
2019-02-07T15:01:28.229Z,48.94
2019-02-07T15:02:32.803Z,49.39
2019-02-07T15:03:37.342Z,49.34
2019-02-07T15:04:41.670Z,49.33
2019-02-07T15:05:46.286Z,49.71
2019-02-07T15:06:50.982Z,49.92
2019-02-07T15:07:55.558Z,50.11
2019-02-07T15:09:00.714Z,50.31
2019-02-07T15:10:06.346Z,50.28
2019-02-07T15:11:11.329Z,50.57
2019-02-07T15:12:15.891Z,50.94
2019-02-07T15:13:20.019Z,51.15
2019-02-07T15:14:24.628Z,51.10
2019-02-07T15:15:29.189Z,51.03
2019-02-07T15:16:33.351Z,50.56
2019-02-07T15:17:38.227Z,50.54
2019-02-07T15:18:42.540Z,49.90
2019-02-07T15:19:47.395Z,49.90
2019-02-07T15:20:52.538Z,49.84
2019-02-07T15:21:56.838Z,50.07
2019-02-07T15:23:01.440Z,50.43
2019-02-07T15:24:08.424Z,50.55
2019-02-07T15:25:12.853Z,50.36
2019-02-07T15:26:17.773Z,50.44
2019-02-07T15:27:23.060Z,50.61
2019-02-07T15:28:27.944Z,50.24
2019-02-07T15:29:32.232Z,50.22
2019-02-07T15:30:36.711Z,50.46
2019-02-07T15:31:41.040Z,50.17
2019-02-07T15:32:45.111Z,50.24
2019-02-07T15:33:49.508Z,50.34
2019-02-07T15:34:54.108Z,50.42
2019-02-07T15:35:59.026Z,50.59
2019-02-07T15:37:03.724Z,50.63
2019-02-07T15:38:08.336Z,50.73
2019-02-07T15:39:14.869Z,50.71
2019-02-07T15:40:19.797Z,51.14
2019-02-07T15:41:24.998Z,51.10
2019-02-07T15:42:29.651Z,51.14
2019-02-07T15:43:34.510Z,51.01
2019-02-07T15:44:39.187Z,51.18
2019-02-07T15:45:44.441Z,51.11
2019-02-07T15:46:49.576Z,51.07
2019-02-07T15:47:54.745Z,51.02
2019-02-07T15:48:59.127Z,51.18
2019-02-07T15:50:03.713Z,51.19
2019-02-07T15:51:08.321Z,51.23
2019-02-07T15:52:12.921Z,51.27
2019-02-07T15:53:17.294Z,50.74
2019-02-07T15:54:21.899Z,50.88
2019-02-07T15:55:26.201Z,51.01
2019-02-07T15:56:30.891Z,51.08
2019-02-07T15:57:35.484Z,50.93
2019-02-07T15:58:59.119Z,50.92
2019-02-07T16:00:11.167Z,50.96
2019-02-07T16:01:23.864Z,50.74
2019-02-07T16:02:38.210Z,50.96
2019-02-07T16:03:51.917Z,50.78
2019-02-07T16:04:56.501Z,50.93
2019-02-07T16:06:01.359Z,50.96
2019-02-07T16:07:07.205Z,51.04
2019-02-07T16:08:11.579Z,51.11
2019-02-07T16:09:16.428Z,51.23
2019-02-07T16:10:21.285Z,51.41
2019-02-07T16:11:26.120Z,51.46
2019-02-07T16:12:30.476Z,51.59
2019-02-07T16:13:35.733Z,51.56
2019-02-07T16:14:40.676Z,51.95
2019-02-07T16:15:45.295Z,52.61
2019-02-07T16:16:49.575Z,53.42
2019-02-07T16:17:54.619Z,53.58
2019-02-07T16:18:58.710Z,53.65
2019-02-07T16:20:02.985Z,53.45
2019-02-07T16:21:07.570Z,53.63
2019-02-07T16:22:11.920Z,53.56
2019-02-07T16:23:16.475Z,53.48
2019-02-07T16:24:21.076Z,53.63
2019-02-07T16:25:25.944Z,53.67
2019-02-07T16:26:30.502Z,53.93
2019-02-07T16:27:35.564Z,54.17
2019-02-07T16:28:39.967Z,54.24
2019-02-07T16:29:44.854Z,54.61
2019-02-07T16:30:49.435Z,54.84
2019-02-07T16:31:53.738Z,54.97
2019-02-07T16:32:58.309Z,55.17
2019-02-07T16:34:03.293Z,55.01
2019-02-07T16:35:08.064Z,55.32
2019-02-07T16:36:12.359Z,55.32
2019-02-07T16:37:16.757Z,54.94
2019-02-07T16:38:21.416Z,55.00
2019-02-07T16:39:26.248Z,54.75
2019-02-07T16:40:31.115Z,54.87
2019-02-07T16:41:35.750Z,54.98
2019-02-07T16:42:40.103Z,55.12
2019-02-07T16:43:44.384Z,55.18
2019-02-07T16:44:48.770Z,56.45
2019-02-07T16:45:53.376Z,57.59
2019-02-07T16:46:57.980Z,58.45
2019-02-07T16:48:02.642Z,59.19
2019-02-07T16:49:07.038Z,59.53
2019-02-07T16:50:13.615Z,59.99
2019-02-07T16:51:17.898Z,60.53
2019-02-07T16:52:22.541Z,61.04
2019-02-07T16:53:27.788Z,61.52
2019-02-07T16:54:32.914Z,62.21
2019-02-07T16:55:37.766Z,62.55
2019-02-07T16:56:42.158Z,63.01
2019-02-07T16:57:46.715Z,63.07
2019-02-07T16:58:51.366Z,63.11
2019-02-07T16:59:55.415Z,63.14
2019-02-07T17:00:59.714Z,63.07
2019-02-07T17:02:03.740Z,63.00
2019-02-07T17:03:08.380Z,62.69
2019-02-07T17:04:12.931Z,62.59
2019-02-07T17:05:18.390Z,62.64
2019-02-07T17:06:23.217Z,62.86
2019-02-07T17:07:28.075Z,63.15
2019-02-07T17:08:32.353Z,63.26
2019-02-07T17:09:41.330Z,63.30
2019-02-07T17:10:45.903Z,63.45
2019-02-07T17:11:50.236Z,63.55
2019-02-07T17:12:54.519Z,63.83
2019-02-07T17:13:59.085Z,63.75
2019-02-07T17:15:03.675Z,64.21
2019-02-07T17:16:08.281Z,64.48
2019-02-07T17:17:13.136Z,64.65
2019-02-07T17:18:17.747Z,64.79
2019-02-07T17:19:22.595Z,64.90
2019-02-07T17:20:28.521Z,65.21
2019-02-07T17:21:33.708Z,65.34
2019-02-07T17:22:38.066Z,65.31
2019-02-07T17:23:42.643Z,65.36
2019-02-07T17:24:47.567Z,65.43
2019-02-07T17:25:52.279Z,65.48
2019-02-07T17:26:57.126Z,65.38
2019-02-07T17:28:01.704Z,65.44
2019-02-07T17:29:06.498Z,65.37
2019-02-07T17:30:15.680Z,65.31
2019-02-07T17:31:20.245Z,65.21
2019-02-07T17:32:25.104Z,65.28
2019-02-07T17:33:29.662Z,65.18